sensor_id;sensor_type;location;lat;lon;timestamp;temperature;humidity
53045;DHT22;38930;52.766;6.884;2023-06-26T00:01:26;23.30;99.90
53045;DHT22;38930;52.766;6.884;2023-06-26T00:03:55;23.20;99.90
53045;DHT22;38930;52.766;6.884;2023-06-26T00:06:21;23.20;99.90
53045;DHT22;38930;52.766;6.884;2023-06-26T00:08:49;23.20;99.90
53045;DHT22;38930;52.766;6.884;2023-06-26T00:11:15;23.10;99.90
53045;DHT22;38930;52.766;6.884;2023-06-26T00:13:40;23.10;99.90
53045;DHT22;38930;52.766;6.884;2023-06-26T00:16:07;23.00;99.90
53045;DHT22;38930;52.766;6.884;2023-06-26T00:18:33;23.00;99.90
53045;DHT22;38930;52.766;6.884;2023-06-26T00:20:58;23.00;99.90
53045;DHT22;38930;52.766;6.884;2023-06-26T00:23:24;22.90;99.90
53045;DHT22;38930;52.766;6.884;2023-06-26T00:25:49;22.90;99.90
53045;DHT22;38930;52.766;6.884;2023-06-26T00:28:15;22.90;99.90
53045;DHT22;38930;52.766;6.884;2023-06-26T00:30:40;22.80;99.90
53045;DHT22;38930;52.766;6.884;2023-06-26T00:33:06;22.80;99.90
53045;DHT22;38930;52.766;6.884;2023-06-26T00:35:32;22.80;99.90
53045;DHT22;38930;52.766;6.884;2023-06-26T00:37:57;22.80;99.90
53045;DHT22;38930;52.766;6.884;2023-06-26T00:40:23;22.80;99.90
53045;DHT22;38930;52.766;6.884;2023-06-26T00:42:50;22.70;99.90
53045;DHT22;38930;52.766;6.884;2023-06-26T00:45:16;22.70;99.90
53045;DHT22;38930;52.766;6.884;2023-06-26T00:47:41;22.70;99.90
53045;DHT22;38930;52.766;6.884;2023-06-26T00:50:07;22.60;99.90
53045;DHT22;38930;52.766;6.884;2023-06-26T00:52:33;22.60;99.90
53045;DHT22;38930;52.766;6.884;2023-06-26T00:54:59;22.60;99.90
53045;DHT22;38930;52.766;6.884;2023-06-26T00:57:25;22.60;99.90
53045;DHT22;38930;52.766;6.884;2023-06-26T00:59:50;22.50;99.90
53045;DHT22;38930;52.766;6.884;2023-06-26T01:02:16;22.50;99.90
53045;DHT22;38930;52.766;6.884;2023-06-26T01:04:51;22.50;99.90
53045;DHT22;38930;52.766;6.884;2023-06-26T01:07:18;22.50;99.90
53045;DHT22;38930;52.766;6.884;2023-06-26T01:09:47;22.50;99.90
53045;DHT22;38930;52.766;6.884;2023-06-26T01:12:14;22.40;99.90
53045;DHT22;38930;52.766;6.884;2023-06-26T01:14:39;22.40;99.90
53045;DHT22;38930;52.766;6.884;2023-06-26T01:17:06;22.40;99.90
53045;DHT22;38930;52.766;6.884;2023-06-26T01:19:33;22.30;99.90
53045;DHT22;38930;52.766;6.884;2023-06-26T01:24:53;22.30;99.90
53045;DHT22;38930;52.766;6.884;2023-06-26T01:27:21;22.30;99.90
53045;DHT22;38930;52.766;6.884;2023-06-26T01:29:49;22.20;99.90
53045;DHT22;38930;52.766;6.884;2023-06-26T01:32:15;22.20;99.90
53045;DHT22;38930;52.766;6.884;2023-06-26T01:34:42;22.20;99.90
53045;DHT22;38930;52.766;6.884;2023-06-26T01:37:08;22.20;99.90
53045;DHT22;38930;52.766;6.884;2023-06-26T01:39:34;22.20;99.90
53045;DHT22;38930;52.766;6.884;2023-06-26T01:42:00;22.10;99.90
53045;DHT22;38930;52.766;6.884;2023-06-26T01:44:29;22.10;99.90
53045;DHT22;38930;52.766;6.884;2023-06-26T01:47:03;22.10;99.90
53045;DHT22;38930;52.766;6.884;2023-06-26T01:50:02;22.10;99.90
53045;DHT22;38930;52.766;6.884;2023-06-26T01:52:58;22.00;99.90
53045;DHT22;38930;52.766;6.884;2023-06-26T01:58:08;21.90;99.90
53045;DHT22;38930;52.766;6.884;2023-06-26T02:00:36;21.90;99.90
53045;DHT22;38930;52.766;6.884;2023-06-26T02:03:02;21.90;99.90
53045;DHT22;38930;52.766;6.884;2023-06-26T02:05:28;21.90;99.90
53045;DHT22;38930;52.766;6.884;2023-06-26T02:07:56;21.80;99.90
53045;DHT22;38930;52.766;6.884;2023-06-26T02:10:21;21.80;99.90
53045;DHT22;38930;52.766;6.884;2023-06-26T02:12:47;21.80;99.90
53045;DHT22;38930;52.766;6.884;2023-06-26T02:15:13;21.80;99.90
53045;DHT22;38930;52.766;6.884;2023-06-26T02:17:38;21.70;99.90
53045;DHT22;38930;52.766;6.884;2023-06-26T02:20:04;21.70;99.90
53045;DHT22;38930;52.766;6.884;2023-06-26T02:22:31;21.60;99.90
53045;DHT22;38930;52.766;6.884;2023-06-26T02:24:57;21.60;99.90
53045;DHT22;38930;52.766;6.884;2023-06-26T02:27:22;21.60;99.90
53045;DHT22;38930;52.766;6.884;2023-06-26T02:29:48;21.60;99.90
53045;DHT22;38930;52.766;6.884;2023-06-26T02:32:14;21.50;99.90
53045;DHT22;38930;52.766;6.884;2023-06-26T02:34:39;21.50;99.90
53045;DHT22;38930;52.766;6.884;2023-06-26T02:37:05;21.50;99.90
53045;DHT22;38930;52.766;6.884;2023-06-26T02:39:36;21.50;99.90
53045;DHT22;38930;52.766;6.884;2023-06-26T02:42:02;21.50;99.90
53045;DHT22;38930;52.766;6.884;2023-06-26T02:44:28;21.50;99.90
53045;DHT22;38930;52.766;6.884;2023-06-26T02:46:54;21.40;99.90
53045;DHT22;38930;52.766;6.884;2023-06-26T02:49:19;21.40;99.90
53045;DHT22;38930;52.766;6.884;2023-06-26T02:51:45;21.40;99.90
53045;DHT22;38930;52.766;6.884;2023-06-26T02:54:11;21.40;99.90
53045;DHT22;38930;52.766;6.884;2023-06-26T02:56:36;21.40;99.90
53045;DHT22;38930;52.766;6.884;2023-06-26T02:59:02;21.30;99.90
53045;DHT22;38930;52.766;6.884;2023-06-26T03:01:28;21.30;99.90
53045;DHT22;38930;52.766;6.884;2023-06-26T03:03:55;21.30;99.90
53045;DHT22;38930;52.766;6.884;2023-06-26T03:06:20;21.30;99.90
53045;DHT22;38930;52.766;6.884;2023-06-26T03:08:46;21.30;99.90
53045;DHT22;38930;52.766;6.884;2023-06-26T03:11:12;21.30;99.90
53045;DHT22;38930;52.766;6.884;2023-06-26T03:13:37;21.20;99.90
53045;DHT22;38930;52.766;6.884;2023-06-26T03:16:04;21.30;99.90
53045;DHT22;38930;52.766;6.884;2023-06-26T03:18:30;21.20;99.90
53045;DHT22;38930;52.766;6.884;2023-06-26T03:20:56;21.20;99.90
53045;DHT22;38930;52.766;6.884;2023-06-26T03:23:22;21.20;99.90
53045;DHT22;38930;52.766;6.884;2023-06-26T03:25:49;21.20;99.90
53045;DHT22;38930;52.766;6.884;2023-06-26T03:28:14;21.30;99.90
53045;DHT22;38930;52.766;6.884;2023-06-26T03:30:40;21.20;99.90
53045;DHT22;38930;52.766;6.884;2023-06-26T03:33:06;21.20;99.90
53045;DHT22;38930;52.766;6.884;2023-06-26T03:35:31;21.20;99.90
53045;DHT22;38930;52.766;6.884;2023-06-26T03:37:58;21.20;99.90
53045;DHT22;38930;52.766;6.884;2023-06-26T03:40:24;21.20;99.90
53045;DHT22;38930;52.766;6.884;2023-06-26T03:42:49;21.20;99.90
53045;DHT22;38930;52.766;6.884;2023-06-26T03:45:15;21.20;99.90
53045;DHT22;38930;52.766;6.884;2023-06-26T03:47:41;21.20;99.90
53045;DHT22;38930;52.766;6.884;2023-06-26T03:50:07;21.20;99.90
53045;DHT22;38930;52.766;6.884;2023-06-26T03:52:33;21.20;99.90
53045;DHT22;38930;52.766;6.884;2023-06-26T03:54:58;21.20;99.90
53045;DHT22;38930;52.766;6.884;2023-06-26T03:57:24;21.20;99.90
53045;DHT22;38930;52.766;6.884;2023-06-26T03:59:51;21.20;99.90
53045;DHT22;38930;52.766;6.884;2023-06-26T04:02:17;21.20;99.90
53045;DHT22;38930;52.766;6.884;2023-06-26T04:04:42;21.20;99.90
53045;DHT22;38930;52.766;6.884;2023-06-26T04:07:08;21.30;99.90
53045;DHT22;38930;52.766;6.884;2023-06-26T04:09:34;21.30;99.90
53045;DHT22;38930;52.766;6.884;2023-06-26T04:12:00;21.30;99.90
53045;DHT22;38930;52.766;6.884;2023-06-26T04:14:25;21.40;99.90
53045;DHT22;38930;52.766;6.884;2023-06-26T04:16:51;21.50;99.90
53045;DHT22;38930;52.766;6.884;2023-06-26T04:19:17;21.50;99.90
53045;DHT22;38930;52.766;6.884;2023-06-26T04:21:42;21.50;99.90
53045;DHT22;38930;52.766;6.884;2023-06-26T04:24:08;21.60;99.90
53045;DHT22;38930;52.766;6.884;2023-06-26T04:26:34;21.60;99.90
53045;DHT22;38930;52.766;6.884;2023-06-26T04:29:00;21.60;99.90
53045;DHT22;38930;52.766;6.884;2023-06-26T04:31:26;21.60;99.90
53045;DHT22;38930;52.766;6.884;2023-06-26T04:33:51;21.70;99.90
53045;DHT22;38930;52.766;6.884;2023-06-26T04:36:20;21.80;99.90
53045;DHT22;38930;52.766;6.884;2023-06-26T04:38:46;21.80;99.90
53045;DHT22;38930;52.766;6.884;2023-06-26T04:41:13;21.90;99.90
53045;DHT22;38930;52.766;6.884;2023-06-26T04:43:39;21.90;99.90
53045;DHT22;38930;52.766;6.884;2023-06-26T04:46:05;22.00;99.90
53045;DHT22;38930;52.766;6.884;2023-06-26T04:48:32;22.00;99.90
53045;DHT22;38930;52.766;6.884;2023-06-26T04:50:57;22.00;99.90
53045;DHT22;38930;52.766;6.884;2023-06-26T04:53:24;22.00;99.90
53045;DHT22;38930;52.766;6.884;2023-06-26T04:55:51;22.00;99.90
53045;DHT22;38930;52.766;6.884;2023-06-26T04:58:17;22.00;99.90
53045;DHT22;38930;52.766;6.884;2023-06-26T05:00:43;22.00;99.90
53045;DHT22;38930;52.766;6.884;2023-06-26T05:03:12;22.00;99.90
53045;DHT22;38930;52.766;6.884;2023-06-26T05:05:38;22.10;99.90
53045;DHT22;38930;52.766;6.884;2023-06-26T05:08:21;22.00;99.90
53045;DHT22;38930;52.766;6.884;2023-06-26T05:10:47;22.00;99.90
53045;DHT22;38930;52.766;6.884;2023-06-26T05:13:13;22.10;99.90
53045;DHT22;38930;52.766;6.884;2023-06-26T05:15:41;22.20;99.90
53045;DHT22;38930;52.766;6.884;2023-06-26T05:18:07;22.30;99.90
53045;DHT22;38930;52.766;6.884;2023-06-26T05:20:34;22.40;99.90
53045;DHT22;38930;52.766;6.884;2023-06-26T05:23:02;22.60;99.90
53045;DHT22;38930;52.766;6.884;2023-06-26T05:25:28;22.80;99.90
53045;DHT22;38930;52.766;6.884;2023-06-26T05:27:55;22.90;99.90
53045;DHT22;38930;52.766;6.884;2023-06-26T05:30:21;23.00;99.90
53045;DHT22;38930;52.766;6.884;2023-06-26T05:32:47;22.90;99.90
53045;DHT22;38930;52.766;6.884;2023-06-26T05:35:13;22.90;99.90
53045;DHT22;38930;52.766;6.884;2023-06-26T05:37:41;22.70;99.90
53045;DHT22;38930;52.766;6.884;2023-06-26T05:40:07;22.70;99.90
53045;DHT22;38930;52.766;6.884;2023-06-26T05:42:33;22.70;99.90
53045;DHT22;38930;52.766;6.884;2023-06-26T05:44:59;22.60;99.90
53045;DHT22;38930;52.766;6.884;2023-06-26T05:47:24;22.60;99.90
53045;DHT22;38930;52.766;6.884;2023-06-26T05:49:50;22.60;99.90
53045;DHT22;38930;52.766;6.884;2023-06-26T05:52:16;22.70;99.90
53045;DHT22;38930;52.766;6.884;2023-06-26T05:54:42;22.60;99.90
53045;DHT22;38930;52.766;6.884;2023-06-26T05:57:08;22.60;99.90
53045;DHT22;38930;52.766;6.884;2023-06-26T05:59:35;22.60;99.90
53045;DHT22;38930;52.766;6.884;2023-06-26T06:02:02;22.60;99.90
53045;DHT22;38930;52.766;6.884;2023-06-26T06:04:28;22.50;99.90
53045;DHT22;38930;52.766;6.884;2023-06-26T06:06:53;22.40;99.90
53045;DHT22;38930;52.766;6.884;2023-06-26T06:09:19;22.30;99.90
53045;DHT22;38930;52.766;6.884;2023-06-26T06:11:44;22.40;99.90
53045;DHT22;38930;52.766;6.884;2023-06-26T06:14:10;22.50;99.90
53045;DHT22;38930;52.766;6.884;2023-06-26T06:16:36;22.70;99.90
53045;DHT22;38930;52.766;6.884;2023-06-26T06:19:02;23.00;99.90
53045;DHT22;38930;52.766;6.884;2023-06-26T06:21:28;23.20;99.90
53045;DHT22;38930;52.766;6.884;2023-06-26T06:23:54;23.30;99.90
53045;DHT22;38930;52.766;6.884;2023-06-26T06:26:23;23.30;99.90
53045;DHT22;38930;52.766;6.884;2023-06-26T06:28:49;23.30;99.90
53045;DHT22;38930;52.766;6.884;2023-06-26T06:31:14;23.30;99.90
53045;DHT22;38930;52.766;6.884;2023-06-26T06:33:40;23.20;99.90
53045;DHT22;38930;52.766;6.884;2023-06-26T06:36:05;23.30;99.90
53045;DHT22;38930;52.766;6.884;2023-06-26T06:38:31;23.50;99.90
53045;DHT22;38930;52.766;6.884;2023-06-26T06:40:57;23.40;99.90
53045;DHT22;38930;52.766;6.884;2023-06-26T06:43:22;23.40;99.90
53045;DHT22;38930;52.766;6.884;2023-06-26T06:45:48;23.30;99.90
53045;DHT22;38930;52.766;6.884;2023-06-26T06:48:14;23.20;99.90
53045;DHT22;38930;52.766;6.884;2023-06-26T06:50:39;23.10;99.90
53045;DHT22;38930;52.766;6.884;2023-06-26T06:53:05;23.10;99.90
53045;DHT22;38930;52.766;6.884;2023-06-26T06:55:30;23.10;99.90
53045;DHT22;38930;52.766;6.884;2023-06-26T06:57:56;23.00;99.90
53045;DHT22;38930;52.766;6.884;2023-06-26T07:00:22;23.00;99.90
53045;DHT22;38930;52.766;6.884;2023-06-26T07:02:47;23.00;99.90
53045;DHT22;38930;52.766;6.884;2023-06-26T07:05:13;23.10;99.90
53045;DHT22;38930;52.766;6.884;2023-06-26T07:07:39;23.20;99.90
53045;DHT22;38930;52.766;6.884;2023-06-26T07:10:10;23.30;99.90
53045;DHT22;38930;52.766;6.884;2023-06-26T07:12:36;23.40;99.90
53045;DHT22;38930;52.766;6.884;2023-06-26T07:15:03;23.50;99.90
53045;DHT22;38930;52.766;6.884;2023-06-26T07:17:30;23.50;99.90
53045;DHT22;38930;52.766;6.884;2023-06-26T07:19:56;23.50;99.90
53045;DHT22;38930;52.766;6.884;2023-06-26T07:22:22;23.70;99.90
53045;DHT22;38930;52.766;6.884;2023-06-26T07:24:48;23.80;99.90
53045;DHT22;38930;52.766;6.884;2023-06-26T07:27:17;24.00;99.90
53045;DHT22;38930;52.766;6.884;2023-06-26T07:29:45;24.10;99.90
53045;DHT22;38930;52.766;6.884;2023-06-26T07:32:11;24.10;99.90
53045;DHT22;38930;52.766;6.884;2023-06-26T07:34:37;24.10;99.90
53045;DHT22;38930;52.766;6.884;2023-06-26T07:37:03;24.10;99.90
53045;DHT22;38930;52.766;6.884;2023-06-26T07:39:29;24.20;99.90
53045;DHT22;38930;52.766;6.884;2023-06-26T07:41:55;24.20;99.90
53045;DHT22;38930;52.766;6.884;2023-06-26T07:44:21;24.30;99.90
53045;DHT22;38930;52.766;6.884;2023-06-26T07:46:47;24.40;99.90
53045;DHT22;38930;52.766;6.884;2023-06-26T07:49:13;24.50;99.90
53045;DHT22;38930;52.766;6.884;2023-06-26T07:51:39;24.60;99.90
53045;DHT22;38930;52.766;6.884;2023-06-26T07:54:04;24.70;99.90
53045;DHT22;38930;52.766;6.884;2023-06-26T07:56:30;24.70;99.90
53045;DHT22;38930;52.766;6.884;2023-06-26T07:58:56;24.80;99.90
53045;DHT22;38930;52.766;6.884;2023-06-26T08:01:23;24.70;99.90
53045;DHT22;38930;52.766;6.884;2023-06-26T08:03:49;24.80;99.90
53045;DHT22;38930;52.766;6.884;2023-06-26T08:06:15;24.90;99.90
53045;DHT22;38930;52.766;6.884;2023-06-26T08:08:40;25.00;99.90
53045;DHT22;38930;52.766;6.884;2023-06-26T08:11:06;25.00;99.90
53045;DHT22;38930;52.766;6.884;2023-06-26T08:13:32;25.20;99.90
53045;DHT22;38930;52.766;6.884;2023-06-26T08:15:57;25.40;99.90
53045;DHT22;38930;52.766;6.884;2023-06-26T08:18:23;25.50;99.90
53045;DHT22;38930;52.766;6.884;2023-06-26T08:20:49;25.50;99.90
53045;DHT22;38930;52.766;6.884;2023-06-26T08:23:14;25.60;99.90
53045;DHT22;38930;52.766;6.884;2023-06-26T08:25:40;25.60;99.90
53045;DHT22;38930;52.766;6.884;2023-06-26T08:28:05;25.70;99.90
53045;DHT22;38930;52.766;6.884;2023-06-26T08:30:32;25.60;99.90
53045;DHT22;38930;52.766;6.884;2023-06-26T08:32:57;25.60;99.90
53045;DHT22;38930;52.766;6.884;2023-06-26T08:35:23;25.50;99.90
53045;DHT22;38930;52.766;6.884;2023-06-26T08:37:49;25.40;99.90
53045;DHT22;38930;52.766;6.884;2023-06-26T08:40:17;25.40;99.90
53045;DHT22;38930;52.766;6.884;2023-06-26T08:42:44;25.30;99.90
53045;DHT22;38930;52.766;6.884;2023-06-26T08:45:10;25.00;99.90
53045;DHT22;38930;52.766;6.884;2023-06-26T08:47:37;24.90;99.90
53045;DHT22;38930;52.766;6.884;2023-06-26T08:50:11;24.70;99.90
53045;DHT22;38930;52.766;6.884;2023-06-26T08:52:48;24.60;99.90
53045;DHT22;38930;52.766;6.884;2023-06-26T08:55:16;24.50;99.90
53045;DHT22;38930;52.766;6.884;2023-06-26T08:57:43;24.60;99.90
53045;DHT22;38930;52.766;6.884;2023-06-26T09:00:10;25.00;99.90
53045;DHT22;38930;52.766;6.884;2023-06-26T09:02:36;25.10;99.90
53045;DHT22;38930;52.766;6.884;2023-06-26T09:05:02;24.90;99.90
53045;DHT22;38930;52.766;6.884;2023-06-26T09:07:28;24.80;99.90
53045;DHT22;38930;52.766;6.884;2023-06-26T09:09:54;24.70;99.90
53045;DHT22;38930;52.766;6.884;2023-06-26T09:12:20;24.70;99.90
53045;DHT22;38930;52.766;6.884;2023-06-26T09:14:46;24.70;99.90
53045;DHT22;38930;52.766;6.884;2023-06-26T09:17:13;24.80;99.90
53045;DHT22;38930;52.766;6.884;2023-06-26T09:19:38;24.90;99.90
53045;DHT22;38930;52.766;6.884;2023-06-26T09:22:05;25.20;99.90
53045;DHT22;38930;52.766;6.884;2023-06-26T09:24:36;25.10;99.90
53045;DHT22;38930;52.766;6.884;2023-06-26T09:27:02;25.20;99.90
53045;DHT22;38930;52.766;6.884;2023-06-26T09:29:28;25.30;99.90
53045;DHT22;38930;52.766;6.884;2023-06-26T09:31:56;25.30;99.90
53045;DHT22;38930;52.766;6.884;2023-06-26T09:34:22;25.10;99.90
53045;DHT22;38930;52.766;6.884;2023-06-26T09:36:47;24.90;99.90
53045;DHT22;38930;52.766;6.884;2023-06-26T09:39:14;24.80;99.90
53045;DHT22;38930;52.766;6.884;2023-06-26T09:41:43;24.90;99.90
53045;DHT22;38930;52.766;6.884;2023-06-26T09:44:11;25.10;99.90
53045;DHT22;38930;52.766;6.884;2023-06-26T09:46:38;25.30;99.90
53045;DHT22;38930;52.766;6.884;2023-06-26T09:49:10;25.40;99.90
53045;DHT22;38930;52.766;6.884;2023-06-26T09:51:38;25.40;99.90
53045;DHT22;38930;52.766;6.884;2023-06-26T09:54:05;25.20;99.90
53045;DHT22;38930;52.766;6.884;2023-06-26T09:56:31;25.00;99.90
53045;DHT22;38930;52.766;6.884;2023-06-26T09:58:59;24.90;99.90
53045;DHT22;38930;52.766;6.884;2023-06-26T10:01:25;25.10;99.90
53045;DHT22;38930;52.766;6.884;2023-06-26T10:03:51;25.50;99.90
53045;DHT22;38930;52.766;6.884;2023-06-26T10:06:21;25.70;99.90
53045;DHT22;38930;52.766;6.884;2023-06-26T10:08:48;25.60;99.90
53045;DHT22;38930;52.766;6.884;2023-06-26T10:11:19;25.20;99.90
53045;DHT22;38930;52.766;6.884;2023-06-26T10:13:49;25.10;99.90
53045;DHT22;38930;52.766;6.884;2023-06-26T10:16:21;25.20;99.90
53045;DHT22;38930;52.766;6.884;2023-06-26T10:18:50;25.50;99.90
53045;DHT22;38930;52.766;6.884;2023-06-26T10:21:20;25.70;99.90
53045;DHT22;38930;52.766;6.884;2023-06-26T10:23:47;25.50;99.90
53045;DHT22;38930;52.766;6.884;2023-06-26T10:26:13;25.40;99.90
53045;DHT22;38930;52.766;6.884;2023-06-26T10:28:40;25.30;99.90
53045;DHT22;38930;52.766;6.884;2023-06-26T10:31:09;25.40;99.90
53045;DHT22;38930;52.766;6.884;2023-06-26T10:33:36;25.70;99.90
53045;DHT22;38930;52.766;6.884;2023-06-26T10:36:26;25.60;99.90
53045;DHT22;38930;52.766;6.884;2023-06-26T10:38:55;25.30;99.90
53045;DHT22;38930;52.766;6.884;2023-06-26T10:41:24;25.30;99.90
53045;DHT22;38930;52.766;6.884;2023-06-26T10:44:11;25.20;99.90
53045;DHT22;38930;52.766;6.884;2023-06-26T10:47:06;25.20;99.90
53045;DHT22;38930;52.766;6.884;2023-06-26T10:49:31;25.30;99.90
53045;DHT22;38930;52.766;6.884;2023-06-26T10:52:01;25.60;99.90
53045;DHT22;38930;52.766;6.884;2023-06-26T10:54:31;25.70;99.70
53045;DHT22;38930;52.766;6.884;2023-06-26T10:56:57;25.80;98.30
53045;DHT22;38930;52.766;6.884;2023-06-26T10:59:26;26.00;97.20
53045;DHT22;38930;52.766;6.884;2023-06-26T11:01:56;26.10;97.00
53045;DHT22;38930;52.766;6.884;2023-06-26T11:04:46;26.40;97.70
53045;DHT22;38930;52.766;6.884;2023-06-26T11:07:17;26.30;97.70
53045;DHT22;38930;52.766;6.884;2023-06-26T11:10:10;26.50;97.50
53045;DHT22;38930;52.766;6.884;2023-06-26T11:12:45;26.40;96.90
53045;DHT22;38930;52.766;6.884;2023-06-26T11:15:17;26.00;96.00
53045;DHT22;38930;52.766;6.884;2023-06-26T11:17:44;26.30;96.30
53045;DHT22;38930;52.766;6.884;2023-06-26T11:20:12;26.30;95.50
53045;DHT22;38930;52.766;6.884;2023-06-26T11:22:40;26.30;95.60
53045;DHT22;38930;52.766;6.884;2023-06-26T11:25:06;26.60;96.20
53045;DHT22;38930;52.766;6.884;2023-06-26T11:30:06;26.60;97.30
53045;DHT22;38930;52.766;6.884;2023-06-26T11:32:32;26.70;97.40
53045;DHT22;38930;52.766;6.884;2023-06-26T11:34:59;26.90;96.40
53045;DHT22;38930;52.766;6.884;2023-06-26T11:37:25;26.80;95.90
53045;DHT22;38930;52.766;6.884;2023-06-26T11:39:51;26.80;92.80
53045;DHT22;38930;52.766;6.884;2023-06-26T11:42:20;26.90;93.70
53045;DHT22;38930;52.766;6.884;2023-06-26T11:44:47;26.90;94.50
53045;DHT22;38930;52.766;6.884;2023-06-26T11:47:17;26.70;95.10
53045;DHT22;38930;52.766;6.884;2023-06-26T11:49:44;26.40;95.40
53045;DHT22;38930;52.766;6.884;2023-06-26T11:52:10;26.10;95.70
53045;DHT22;38930;52.766;6.884;2023-06-26T11:54:35;25.90;95.80
53045;DHT22;38930;52.766;6.884;2023-06-26T11:57:01;25.70;93.50
53045;DHT22;38930;52.766;6.884;2023-06-26T11:59:36;25.90;94.20
53045;DHT22;38930;52.766;6.884;2023-06-26T12:02:10;26.20;94.90
53045;DHT22;38930;52.766;6.884;2023-06-26T12:04:37;26.40;95.30
53045;DHT22;38930;52.766;6.884;2023-06-26T12:07:06;26.50;95.00
53045;DHT22;38930;52.766;6.884;2023-06-26T12:09:34;26.30;94.90
53045;DHT22;38930;52.766;6.884;2023-06-26T12:12:00;26.00;94.10
53045;DHT22;38930;52.766;6.884;2023-06-26T12:14:26;25.90;94.20
53045;DHT22;38930;52.766;6.884;2023-06-26T12:16:55;25.90;94.30
53045;DHT22;38930;52.766;6.884;2023-06-26T12:19:27;26.10;93.90
53045;DHT22;38930;52.766;6.884;2023-06-26T12:21:52;26.10;94.70
53045;DHT22;38930;52.766;6.884;2023-06-26T12:24:21;26.00;95.30
53045;DHT22;38930;52.766;6.884;2023-06-26T12:26:51;25.70;95.90
53045;DHT22;38930;52.766;6.884;2023-06-26T12:29:20;25.70;96.20
53045;DHT22;38930;52.766;6.884;2023-06-26T12:31:49;26.00;96.20
53045;DHT22;38930;52.766;6.884;2023-06-26T12:34:26;26.00;94.80
53045;DHT22;38930;52.766;6.884;2023-06-26T12:36:52;25.80;94.90
53045;DHT22;38930;52.766;6.884;2023-06-26T12:39:21;25.60;94.80
53045;DHT22;38930;52.766;6.884;2023-06-26T12:41:53;25.40;95.00
53045;DHT22;38930;52.766;6.884;2023-06-26T12:44:27;25.40;94.60
53045;DHT22;38930;52.766;6.884;2023-06-26T12:46:58;25.50;95.20
53045;DHT22;38930;52.766;6.884;2023-06-26T12:49:50;25.80;94.50
53045;DHT22;38930;52.766;6.884;2023-06-26T12:52:17;26.10;94.70
53045;DHT22;38930;52.766;6.884;2023-06-26T12:54:45;26.10;94.80
53045;DHT22;38930;52.766;6.884;2023-06-26T12:57:13;26.10;94.20
53045;DHT22;38930;52.766;6.884;2023-06-26T12:59:39;26.00;94.10
53045;DHT22;38930;52.766;6.884;2023-06-26T13:02:05;26.00;93.30
53045;DHT22;38930;52.766;6.884;2023-06-26T13:04:32;26.10;93.40
53045;DHT22;38930;52.766;6.884;2023-06-26T13:06:58;26.20;94.10
53045;DHT22;38930;52.766;6.884;2023-06-26T13:09:24;26.40;93.60
53045;DHT22;38930;52.766;6.884;2023-06-26T13:11:50;26.30;93.30
53045;DHT22;38930;52.766;6.884;2023-06-26T13:14:16;26.30;92.40
53045;DHT22;38930;52.766;6.884;2023-06-26T13:16:42;26.10;91.70
53045;DHT22;38930;52.766;6.884;2023-06-26T13:19:07;26.20;92.30
53045;DHT22;38930;52.766;6.884;2023-06-26T13:21:34;26.30;92.50
53045;DHT22;38930;52.766;6.884;2023-06-26T13:23:59;26.40;93.00
53045;DHT22;38930;52.766;6.884;2023-06-26T13:26:25;26.30;94.10
53045;DHT22;38930;52.766;6.884;2023-06-26T13:28:52;26.10;94.30
53045;DHT22;38930;52.766;6.884;2023-06-26T13:31:18;25.80;95.40
53045;DHT22;38930;52.766;6.884;2023-06-26T13:33:44;25.70;95.70
53045;DHT22;38930;52.766;6.884;2023-06-26T13:36:10;25.60;95.80
53045;DHT22;38930;52.766;6.884;2023-06-26T13:38:35;25.50;95.70
53045;DHT22;38930;52.766;6.884;2023-06-26T13:41:01;25.60;95.40
53045;DHT22;38930;52.766;6.884;2023-06-26T13:43:28;25.60;94.90
53045;DHT22;38930;52.766;6.884;2023-06-26T13:45:54;25.50;95.00
53045;DHT22;38930;52.766;6.884;2023-06-26T13:48:20;25.40;95.30
53045;DHT22;38930;52.766;6.884;2023-06-26T13:50:46;25.40;95.50
53045;DHT22;38930;52.766;6.884;2023-06-26T13:53:12;25.20;95.30
53045;DHT22;38930;52.766;6.884;2023-06-26T13:55:38;25.20;95.50
53045;DHT22;38930;52.766;6.884;2023-06-26T13:58:07;25.20;95.70
53045;DHT22;38930;52.766;6.884;2023-06-26T14:00:34;25.30;95.50
53045;DHT22;38930;52.766;6.884;2023-06-26T14:03:00;25.30;95.80
53045;DHT22;38930;52.766;6.884;2023-06-26T14:05:26;25.50;94.90
53045;DHT22;38930;52.766;6.884;2023-06-26T14:07:52;25.60;95.60
53045;DHT22;38930;52.766;6.884;2023-06-26T14:10:20;25.60;94.10
53045;DHT22;38930;52.766;6.884;2023-06-26T14:12:46;25.60;94.10
53045;DHT22;38930;52.766;6.884;2023-06-26T14:15:12;25.70;94.20
53045;DHT22;38930;52.766;6.884;2023-06-26T14:17:37;25.50;94.40
53045;DHT22;38930;52.766;6.884;2023-06-26T14:20:06;25.40;93.80
53045;DHT22;38930;52.766;6.884;2023-06-26T14:22:35;25.20;94.60
53045;DHT22;38930;52.766;6.884;2023-06-26T14:25:02;25.20;94.80
53045;DHT22;38930;52.766;6.884;2023-06-26T14:27:28;25.20;94.80
53045;DHT22;38930;52.766;6.884;2023-06-26T14:29:53;25.10;95.30
53045;DHT22;38930;52.766;6.884;2023-06-26T14:32:19;25.10;95.70
53045;DHT22;38930;52.766;6.884;2023-06-26T14:34:45;25.10;96.50
53045;DHT22;38930;52.766;6.884;2023-06-26T14:37:10;25.20;95.60
53045;DHT22;38930;52.766;6.884;2023-06-26T14:39:36;25.00;95.00
53045;DHT22;38930;52.766;6.884;2023-06-26T14:42:04;24.80;95.30
53045;DHT22;38930;52.766;6.884;2023-06-26T14:44:30;24.80;96.00
53045;DHT22;38930;52.766;6.884;2023-06-26T14:46:56;24.80;95.20
53045;DHT22;38930;52.766;6.884;2023-06-26T14:49:21;24.80;95.20
53045;DHT22;38930;52.766;6.884;2023-06-26T14:51:47;24.90;94.60
53045;DHT22;38930;52.766;6.884;2023-06-26T14:54:13;24.80;95.10
53045;DHT22;38930;52.766;6.884;2023-06-26T14:56:39;24.90;94.90
53045;DHT22;38930;52.766;6.884;2023-06-26T14:59:04;25.00;94.30
53045;DHT22;38930;52.766;6.884;2023-06-26T15:01:33;25.30;94.60
53045;DHT22;38930;52.766;6.884;2023-06-26T15:03:59;25.30;93.50
53045;DHT22;38930;52.766;6.884;2023-06-26T15:06:24;25.20;94.10
53045;DHT22;38930;52.766;6.884;2023-06-26T15:08:50;25.40;94.90
53045;DHT22;38930;52.766;6.884;2023-06-26T15:11:17;25.40;95.20
53045;DHT22;38930;52.766;6.884;2023-06-26T15:13:43;25.50;94.90
53045;DHT22;38930;52.766;6.884;2023-06-26T15:16:11;25.50;94.70
53045;DHT22;38930;52.766;6.884;2023-06-26T15:18:37;25.30;94.20
53045;DHT22;38930;52.766;6.884;2023-06-26T15:21:03;25.10;94.40
53045;DHT22;38930;52.766;6.884;2023-06-26T15:23:29;25.00;94.20
53045;DHT22;38930;52.766;6.884;2023-06-26T15:25:55;24.80;94.70
53045;DHT22;38930;52.766;6.884;2023-06-26T15:28:20;24.80;94.90
53045;DHT22;38930;52.766;6.884;2023-06-26T15:30:46;25.00;94.60
53045;DHT22;38930;52.766;6.884;2023-06-26T15:33:13;25.00;94.20
53045;DHT22;38930;52.766;6.884;2023-06-26T15:35:38;25.10;94.00
53045;DHT22;38930;52.766;6.884;2023-06-26T15:38:04;25.20;94.00